Time;durP1;ratioP1;P1;durP2;ratioP2;P2;SDS_P1;SDS_P2;PMS_P1;PMS_P2;Temp;Humidity;BMP_temperature;BMP_pressure;BME280_temperature;BME280_humidity;BME280_pressure;Samples;Min_cycle;Max_cycle;Signal;HPM_P1;HPM_P2
2024/04/16 00:00:39;;;;;;;2.85;0.43;;;28.40;31.60;;;;;;5478350;26;20091;-50
2024/04/16 00:03:07;;;;;;;2.47;0.50;;;28.20;31.70;;;;;;5479490;26;20086;-49
2024/04/16 00:05:34;;;;;;;8.48;7.80;;;28.10;32.40;;;;;;5475926;26;20060;-51
2024/04/16 00:08:00;;;;;;;1.92;1.02;;;28.10;32.40;;;;;;5474613;26;20064;-50
2024/04/16 00:10:28;;;;;;;1.45;0.47;;;28.10;32.50;;;;;;5477823;26;20068;-51
2024/04/16 00:12:54;;;;;;;3.15;0.50;;;28.10;32.60;;;;;;5478883;26;20060;-49
2024/04/16 00:15:21;;;;;;;5.47;0.88;;;28.20;32.70;;;;;;5478223;26;20073;-46
2024/04/16 00:17:48;;;;;;;5.38;0.65;;;28.10;33.00;;;;;;5481073;26;20159;-46
2024/04/16 00:20:14;;;;;;;6.57;1.02;;;28.20;32.60;;;;;;5474762;26;20061;-47
2024/04/16 00:22:42;;;;;;;4.78;0.60;;;28.20;32.80;;;;;;5472415;26;20062;-47
2024/04/16 00:25:08;;;;;;;6.65;1.02;;;28.20;32.30;;;;;;5481041;26;20639;-55
2024/04/16 00:27:35;;;;;;;3.15;1.00;;;27.90;33.10;;;;;;5477548;26;20092;-51
2024/04/16 00:30:02;;;;;;;7.15;0.98;;;27.80;33.20;;;;;;5480557;26;20135;-49
2024/04/16 00:32:28;;;;;;;1.00;0.43;;;27.90;33.70;;;;;;5477349;26;20058;-53
2024/04/16 00:34:55;;;;;;;1.77;0.50;;;28.00;33.20;;;;;;5475186;26;20111;-50
2024/04/16 00:37:21;;;;;;;1.73;0.65;;;28.10;32.50;;;;;;5478867;26;20407;-50
2024/04/16 00:39:48;;;;;;;2.75;0.40;;;28.10;32.30;;;;;;5478545;26;20096;-46
2024/04/16 00:42:15;;;;;;;2.80;0.60;;;27.90;32.00;;;;;;5482200;26;20087;-48
2024/04/16 00:44:42;;;;;;;3.42;0.50;;;27.70;32.40;;;;;;5482076;26;20091;-54
2024/04/16 00:47:10;;;;;;;12.65;1.27;;;27.80;32.80;;;;;;5479351;26;20123;-52
2024/04/16 00:49:37;;;;;;;4.50;0.60;;;27.90;32.30;;;;;;5451102;26;20161;-46
2024/04/16 00:52:05;;;;;;;4.95;2.78;;;27.50;32.80;;;;;;5482505;26;20549;-53
2024/04/16 00:54:32;;;;;;;1.23;0.57;;;27.50;33.20;;;;;;5478421;26;20065;-47
2024/04/16 00:56:59;;;;;;;1.95;0.30;;;27.60;33.00;;;;;;5481943;26;20066;-48
2024/04/16 00:59:26;;;;;;;5.05;0.60;;;27.60;32.90;;;;;;5478973;26;20064;-46
2024/04/16 01:01:56;;;;;;;4.43;0.60;;;27.80;32.80;;;;;;5479238;26;20149;-46
2024/04/16 01:04:26;;;;;;;4.22;0.68;;;27.90;32.30;;;;;;5482438;26;20157;-51
2024/04/16 01:06:52;;;;;;;0.52;0.40;;;27.80;32.90;;;;;;5478109;26;20062;-46
2024/04/16 01:09:19;;;;;;;6.43;5.78;;;27.70;32.70;;;;;;5481583;26;20069;-48
2024/04/16 01:12:00;;;;;;;2.75;0.47;;;27.60;32.80;;;;;;5481716;26;20064;-46
2024/04/16 01:14:26;;;;;;;3.97;0.40;;;27.40;32.80;;;;;;5483311;26;20072;-48
2024/04/16 01:16:54;;;;;;;2.15;0.70;;;27.60;32.70;;;;;;5485292;26;20077;-48
2024/04/16 01:19:20;;;;;;;8.68;1.63;;;27.90;32.20;;;;;;5481470;26;20086;-50
2024/04/16 01:21:47;;;;;;;2.30;0.47;;;27.90;32.70;;;;;;5475305;26;20106;-49
2024/04/16 01:24:13;;;;;;;2.45;0.75;;;27.50;33.20;;;;;;5481970;26;20062;-53
2024/04/16 01:26:40;;;;;;;5.53;0.80;;;27.10;33.20;;;;;;5480332;26;20428;-51
2024/04/16 01:29:06;;;;;;;3.28;0.35;;;26.70;33.70;;;;;;5481856;26;20062;-50
2024/04/16 01:31:34;;;;;;;3.25;0.50;;;26.40;34.00;;;;;;5446104;26;20065;-50
2024/04/16 01:34:00;;;;;;;2.28;0.40;;;26.20;34.60;;;;;;5480377;26;20073;-52
2024/04/16 01:36:27;;;;;;;2.15;0.63;;;26.00;34.70;;;;;;5479575;26;20070;-49
2024/04/16 01:38:53;;;;;;;2.80;0.40;;;25.80;35.00;;;;;;5482315;26;20088;-52
2024/04/16 01:41:19;;;;;;;4.53;0.63;;;25.70;36.20;;;;;;5479938;26;20092;-54
2024/04/16 01:43:46;;;;;;;4.22;0.77;;;25.50;35.20;;;;;;5482550;26;20088;-50
2024/04/16 01:46:12;;;;;;;5.95;0.85;;;25.30;35.60;;;;;;5483530;26;20066;-52
2024/04/16 01:48:39;;;;;;;3.05;0.90;;;25.20;35.90;;;;;;5480242;26;20096;-49
2024/04/16 01:51:05;;;;;;;4.80;0.70;;;25.10;36.30;;;;;;5449692;26;20149;-51
2024/04/16 01:53:32;;;;;;;3.95;0.50;;;25.00;36.60;;;;;;5482109;26;20110;-48
2024/04/16 01:56:01;;;;;;;1.58;0.65;;;25.00;36.90;;;;;;5480009;26;20073;-51
2024/04/16 01:58:28;;;;;;;3.58;0.50;;;24.90;37.30;;;;;;5478340;26;20524;-50
2024/04/16 02:01:00;;;;;;;4.45;0.80;;;24.80;37.60;;;;;;5479239;26;20062;-53
2024/04/16 02:03:28;;;;;;;4.53;0.60;;;24.60;37.80;;;;;;5480791;26;20073;-50
2024/04/16 02:05:58;;;;;;;3.35;0.70;;;24.40;38.10;;;;;;5479827;26;20146;-55
2024/04/16 02:08:25;;;;;;;3.47;1.02;;;24.30;38.30;;;;;;5480809;26;20074;-55
2024/04/16 02:10:57;;;;;;;2.97;1.08;;;24.20;38.60;;;;;;5482241;26;20122;-52
2024/04/16 02:13:28;;;;;;;1.92;0.70;;;24.10;38.50;;;;;;5481087;26;20070;-51
2024/04/16 02:15:55;;;;;;;6.65;0.77;;;24.00;38.80;;;;;;5480375;26;20086;-53
2024/04/16 02:18:22;;;;;;;5.70;0.70;;;24.00;38.70;;;;;;5477422;26;20101;-56
2024/04/16 02:20:48;;;;;;;5.95;0.95;;;23.90;38.60;;;;;;5480362;26;20156;-54
2024/04/16 02:23:15;;;;;;;5.05;0.85;;;23.80;39.10;;;;;;5474336;26;20104;-54
2024/04/16 02:25:48;;;;;;;4.03;0.80;;;23.70;39.10;;;;;;5479536;26;20165;-53
2024/04/16 02:28:15;;;;;;;5.47;0.93;;;23.60;39.50;;;;;;5478076;26;20065;-57
2024/04/16 02:30:42;;;;;;;4.35;0.98;;;23.50;40.10;;;;;;5478594;26;21038;-53
2024/04/16 02:33:13;;;;;;;4.10;1.02;;;23.40;39.30;;;;;;5480887;26;20150;-53
2024/04/16 02:35:40;;;;;;;6.70;1.10;;;23.30;39.20;;;;;;5478984;26;20423;-51
2024/04/16 02:38:06;;;;;;;6.68;1.13;;;23.20;39.60;;;;;;5479822;26;20066;-50
2024/04/16 02:40:33;;;;;;;7.53;0.93;;;23.20;40.10;;;;;;5450040;26;20087;-49
2024/04/16 02:42:59;;;;;;;6.18;1.30;;;23.10;40.10;;;;;;5478777;26;20519;-49
2024/04/16 02:45:27;;;;;;;5.70;1.33;;;23.10;40.50;;;;;;5479544;26;20097;-51
2024/04/16 02:47:53;;;;;;;7.35;1.50;;;23.00;40.30;;;;;;5477913;26;20174;-58
2024/04/16 02:50:21;;;;;;;7.70;1.10;;;22.90;40.80;;;;;;5480613;26;20061;-53
2024/04/16 02:52:51;;;;;;;6.90;1.38;;;22.80;41.30;;;;;;5476037;26;20066;-52
2024/04/16 02:55:21;;;;;;;9.75;1.50;;;22.80;42.10;;;;;;5450271;26;20145;-53
2024/04/16 02:57:47;;;;;;;16.38;2.10;;;22.70;41.90;;;;;;5474787;26;20547;-50
2024/04/16 03:00:14;;;;;;;13.43;2.05;;;22.60;42.50;;;;;;5480029;26;20429;-48
2024/04/16 03:02:40;;;;;;;35.55;3.33;;;22.60;42.30;;;;;;5473357;26;20092;-51
2024/04/16 03:05:07;;;;;;;40.40;3.95;;;22.60;41.80;;;;;;5478021;26;20097;-54
2024/04/16 03:07:33;;;;;;;31.13;3.65;;;22.60;41.60;;;;;;5477539;26;20096;-52
2024/04/16 03:10:00;;;;;;;25.50;3.42;;;22.50;42.20;;;;;;5473910;26;20096;-53
2024/04/16 03:12:26;;;;;;;27.42;3.08;;;22.50;43.50;;;;;;5479241;26;20113;-58
2024/04/16 03:14:53;;;;;;;28.55;3.78;;;22.40;43.70;;;;;;5479250;26;20094;-52
2024/04/16 03:17:20;;;;;;;25.65;3.60;;;22.30;43.70;;;;;;5441949;26;20082;-52
2024/04/16 03:19:46;;;;;;;34.67;3.60;;;22.20;43.40;;;;;;5444396;26;20213;-50
2024/04/16 03:22:13;;;;;;;49.08;4.95;;;22.20;43.40;;;;;;5474373;26;20408;-54
2024/04/16 03:24:40;;;;;;;41.75;4.75;;;22.10;43.80;;;;;;5480094;26;21007;-56
2024/04/16 03:27:06;;;;;;;33.72;4.05;;;22.00;44.20;;;;;;5473499;26;20067;-51
2024/04/16 03:29:33;;;;;;;27.98;4.50;;;22.00;44.50;;;;;;5477951;26;20074;-53
2024/04/16 03:31:59;;;;;;;54.55;4.15;;;22.00;44.60;;;;;;5477841;26;20592;-53
2024/04/16 03:34:26;;;;;;;29.83;3.67;;;21.80;45.00;;;;;;5478178;26;20081;-56
2024/04/16 03:36:52;;;;;;;41.00;4.68;;;21.80;45.60;;;;;;5444714;26;20062;-51
2024/04/16 03:39:19;;;;;;;49.25;4.80;;;21.70;45.30;;;;;;5478485;26;20100;-53
2024/04/16 03:41:46;;;;;;;26.05;3.95;;;21.70;45.10;;;;;;5474124;26;20058;-54
2024/04/16 03:44:13;;;;;;;35.70;4.30;;;21.60;45.50;;;;;;5475777;26;20096;-53
2024/04/16 03:46:40;;;;;;;36.28;4.38;;;21.60;45.40;;;;;;5478231;26;20512;-51
2024/04/16 03:49:06;;;;;;;30.02;4.55;;;21.60;45.20;;;;;;5477869;26;20065;-52
2024/04/16 03:51:33;;;;;;;34.92;4.85;;;21.50;45.40;;;;;;5478513;26;20067;-51
2024/04/16 03:53:59;;;;;;;30.83;4.80;;;21.50;45.50;;;;;;5470633;26;20121;-54
2024/04/16 03:56:26;;;;;;;37.35;4.63;;;21.40;46.00;;;;;;5478530;26;20073;-52
2024/04/16 03:59:37;;;;;;;38.65;4.78;;;21.30;46.80;;;;;;5441802;26;20519;-54
2024/04/16 04:01:42;;;;;;;38.75;5.20;;;21.30;46.80;;;;;;5459098;26;20062;-52
2024/04/16 04:04:11;;;;;;;32.72;5.13;;;21.30;46.50;;;;;;5444863;26;20924;-51
2024/04/16 04:06:37;;;;;;;35.70;5.30;;;21.30;47.80;;;;;;5474115;26;20084;-50
2024/04/16 04:09:04;;;;;;;49.97;7.10;;;21.10;47.60;;;;;;5441622;26;20106;-55
2024/04/16 04:11:30;;;;;;;71.43;7.32;;;21.10;47.50;;;;;;5479266;26;20084;-49
2024/04/16 04:13:57;;;;;;;49.03;7.63;;;21.10;47.20;;;;;;5475709;26;20632;-51
2024/04/16 04:16:23;;;;;;;51.92;7.55;;;21.10;47.10;;;;;;5480476;26;20504;-53
2024/04/16 04:18:50;;;;;;;42.53;7.07;;;21.00;48.50;;;;;;5481787;26;20075;-49
2024/04/16 04:21:16;;;;;;;50.50;7.18;;;20.90;48.20;;;;;;5451050;26;20110;-57
2024/04/16 04:23:43;;;;;;;54.38;8.77;;;20.90;47.80;;;;;;5480574;26;20067;-50
2024/04/16 04:26:09;;;;;;;60.42;8.80;;;20.90;47.70;;;;;;5446584;26;20535;-48
2024/04/16 04:28:36;;;;;;;62.90;9.80;;;20.80;49.10;;;;;;5482482;26;20071;-54
2024/04/16 04:31:19;;;;;;;60.92;10.35;;;20.80;49.00;;;;;;5483142;26;20079;-52
2024/04/16 04:33:46;;;;;;;63.20;11.27;;;20.80;48.20;;;;;;5445087;26;21249;-51
2024/04/16 04:36:15;;;;;;;64.30;12.65;;;20.70;47.90;;;;;;5469853;26;20205;-55
2024/04/16 04:38:41;;;;;;;55.10;11.23;;;20.60;48.00;;;;;;5481036;26;20082;-49
2024/04/16 04:41:12;;;;;;;64.10;13.35;;;20.50;48.40;;;;;;5481083;26;20061;-50
2024/04/16 04:43:39;;;;;;;60.35;13.65;;;20.60;48.60;;;;;;5479101;26;20131;-60
2024/04/16 04:46:05;;;;;;;72.68;14.23;;;20.60;48.70;;;;;;5480748;26;20563;-50
2024/04/16 04:48:32;;;;;;;61.40;13.43;;;20.50;47.90;;;;;;5481510;26;20612;-50
2024/04/16 04:50:58;;;;;;;75.88;14.93;;;20.60;48.50;;;;;;5481376;26;20419;-50
2024/04/16 04:53:25;;;;;;;77.63;13.73;;;20.50;48.20;;;;;;5483864;26;20069;-49
2024/04/16 04:55:51;;;;;;;74.95;13.13;;;20.50;48.50;;;;;;5478784;26;20170;-52
2024/04/16 04:58:18;;;;;;;83.18;13.93;;;20.50;49.50;;;;;;5481104;26;20089;-57
2024/04/16 05:00:44;;;;;;;95.88;13.55;;;20.40;50.50;;;;;;5452301;26;20155;-50
2024/04/16 05:03:11;;;;;;;64.57;13.75;;;20.30;49.60;;;;;;5480682;26;20978;-50
2024/04/16 05:05:40;;;;;;;59.60;12.48;;;20.20;49.40;;;;;;5474600;26;20536;-49
2024/04/16 05:08:06;;;;;;;61.28;13.25;;;20.20;51.00;;;;;;5478336;26;20398;-53
2024/04/16 05:10:33;;;;;;;73.55;12.65;;;20.10;50.90;;;;;;5449466;26;20147;-54
2024/04/16 05:12:59;;;;;;;73.85;13.52;;;20.10;50.20;;;;;;5481888;26;20108;-49
2024/04/16 05:15:26;;;;;;;57.47;12.07;;;20.20;50.10;;;;;;5448021;26;20150;-51
2024/04/16 05:17:52;;;;;;;59.70;12.50;;;20.20;50.10;;;;;;5481131;26;20066;-54
2024/04/16 05:20:19;;;;;;;74.55;14.18;;;20.20;51.50;;;;;;5481969;26;20071;-54
2024/04/16 05:22:45;;;;;;;74.07;13.38;;;20.00;51.10;;;;;;5480941;26;20071;-53
2024/04/16 05:25:12;;;;;;;69.93;14.55;;;20.00;51.40;;;;;;5477996;26;20062;-54
2024/04/16 05:27:39;;;;;;;63.28;13.98;;;20.00;51.20;;;;;;5482957;26;20062;-51
2024/04/16 05:30:08;;;;;;;88.70;14.48;;;20.00;51.60;;;;;;5478505;26;20119;-52
2024/04/16 05:32:34;;;;;;;66.13;14.02;;;19.90;52.40;;;;;;5479063;26;20102;-49
2024/04/16 05:35:01;;;;;;;86.72;14.98;;;19.90;52.60;;;;;;5478480;26;20154;-50
2024/04/16 05:37:27;;;;;;;92.85;16.48;;;19.90;52.80;;;;;;5446205;26;20085;-49
2024/04/16 05:39:53;;;;;;;86.93;15.43;;;19.90;52.00;;;;;;5482965;26;20067;-52
2024/04/16 05:42:20;;;;;;;75.75;15.90;;;19.90;51.00;;;;;;5481826;26;20110;-53
2024/04/16 05:44:47;;;;;;;91.57;16.23;;;19.80;51.80;;;;;;5479874;26;20178;-53
2024/04/16 05:47:13;;;;;;;107.80;18.00;;;19.80;51.20;;;;;;5479331;26;20063;-53
2024/04/16 05:49:40;;;;;;;105.20;17.33;;;19.70;51.80;;;;;;5482104;26;20067;-49
2024/04/16 05:52:07;;;;;;;109.88;19.85;;;19.60;51.80;;;;;;5479406;26;20071;-50
2024/04/16 05:54:33;;;;;;;80.70;17.75;;;19.50;52.40;;;;;;5480643;26;20440;-51
2024/04/16 05:57:00;;;;;;;79.15;18.35;;;19.50;52.20;;;;;;5482250;26;20105;-53
2024/04/16 05:59:27;;;;;;;90.82;18.95;;;19.50;52.40;;;;;;5483248;26;20097;-49
2024/04/16 06:01:53;;;;;;;99.00;17.50;;;19.50;52.50;;;;;;5479436;26;20063;-53
2024/04/16 06:04:20;;;;;;;77.43;17.30;;;19.40;53.10;;;;;;5479291;26;20090;-48
2024/04/16 06:06:47;;;;;;;101.15;18.55;;;19.40;52.50;;;;;;5447040;26;20062;-49
2024/04/16 06:09:13;;;;;;;80.88;19.15;;;19.30;52.70;;;;;;5446395;26;20060;-49
2024/04/16 06:11:40;;;;;;;89.32;17.48;;;19.40;52.70;;;;;;5482542;26;20093;-48
2024/04/16 06:14:06;;;;;;;96.35;20.33;;;19.40;52.80;;;;;;5478476;26;20555;-55
2024/04/16 06:16:32;;;;;;;90.10;18.63;;;19.30;53.10;;;;;;5477856;26;20063;-49
2024/04/16 06:18:59;;;;;;;76.95;18.70;;;19.20;53.80;;;;;;5483239;26;20101;-57
2024/04/16 06:21:25;;;;;;;88.72;21.08;;;19.20;53.60;;;;;;5474282;26;20113;-54
2024/04/16 06:23:52;;;;;;;110.05;23.13;;;19.20;53.20;;;;;;5478736;26;20066;-54
2024/04/16 06:26:18;;;;;;;98.47;23.25;;;19.20;54.20;;;;;;5476677;26;20066;-52
2024/04/16 06:28:45;;;;;;;114.65;25.45;;;19.10;54.60;;;;;;5481020;26;20102;-53
2024/04/16 06:31:11;;;;;;;100.35;25.55;;;19.00;54.30;;;;;;5474623;26;20068;-51
2024/04/16 06:33:37;;;;;;;97.97;25.27;;;19.00;54.30;;;;;;5478629;26;20062;-60
2024/04/16 06:36:05;;;;;;;151.15;41.40;;;18.90;54.60;;;;;;5480853;26;20089;-50
2024/04/16 06:38:32;;;;;;;120.38;26.58;;;18.90;54.80;;;;;;5478689;26;20094;-53
2024/04/16 06:41:02;;;;;;;130.23;27.92;;;18.90;54.80;;;;;;5448262;26;20071;-58
2024/04/16 06:43:29;;;;;;;105.32;27.38;;;18.90;55.20;;;;;;5482128;26;20424;-50
2024/04/16 06:45:56;;;;;;;132.43;29.02;;;18.80;54.70;;;;;;5478009;26;20119;-51
2024/04/16 06:48:22;;;;;;;123.50;28.48;;;18.80;54.60;;;;;;5480955;26;20067;-55
2024/04/16 06:50:49;;;;;;;121.50;28.20;;;18.70;54.70;;;;;;5480273;26;20071;-53
2024/04/16 06:53:16;;;;;;;95.00;27.65;;;18.80;54.40;;;;;;5476051;26;20170;-49
2024/04/16 06:55:42;;;;;;;126.90;29.02;;;18.80;54.40;;;;;;5482934;26;20086;-50
2024/04/16 06:58:09;;;;;;;110.72;28.45;;;18.80;55.60;;;;;;5478290;26;20067;-50
2024/04/16 07:00:35;;;;;;;114.38;28.30;;;18.70;56.40;;;;;;5448553;26;20106;-52
2024/04/16 07:03:02;;;;;;;116.78;29.38;;;18.70;56.50;;;;;;5478736;26;20067;-52
2024/04/16 07:05:29;;;;;;;104.90;27.40;;;18.70;57.00;;;;;;5479835;26;20067;-50
2024/04/16 07:07:56;;;;;;;111.32;27.85;;;18.60;55.70;;;;;;5478387;26;20143;-48
2024/04/16 07:10:23;;;;;;;105.57;27.42;;;18.50;55.40;;;;;;5449352;26;20469;-50
2024/04/16 07:12:49;;;;;;;114.97;26.30;;;18.50;55.50;;;;;;5478425;26;20063;-57
2024/04/16 07:15:15;;;;;;;108.50;26.73;;;18.50;56.10;;;;;;5479684;26;21209;-52
2024/04/16 07:17:42;;;;;;;124.28;32.72;;;18.50;56.30;;;;;;5480008;26;20098;-52
2024/04/16 07:20:09;;;;;;;109.05;32.47;;;18.40;56.40;;;;;;5480640;26;20071;-48
2024/04/16 07:22:36;;;;;;;110.20;33.58;;;18.50;56.50;;;;;;5480200;26;20059;-50
2024/04/16 07:25:03;;;;;;;100.38;31.45;;;18.40;56.30;;;;;;5482646;26;20078;-52
2024/04/16 07:27:29;;;;;;;85.03;29.02;;;18.40;56.20;;;;;;5475234;26;20066;-59
2024/04/16 07:29:56;;;;;;;108.03;31.35;;;18.40;55.90;;;;;;5478602;26;20426;-50
2024/04/16 07:32:22;;;;;;;107.85;31.20;;;18.30;56.00;;;;;;5481588;26;20178;-53
2024/04/16 07:34:49;;;;;;;102.28;29.88;;;18.30;56.30;;;;;;5481515;26;20201;-50
2024/04/16 07:37:15;;;;;;;96.43;25.63;;;18.30;57.50;;;;;;5479524;26;20059;-52
2024/04/16 07:39:42;;;;;;;112.72;25.25;;;18.20;57.50;;;;;;5445236;26;20090;-58
2024/04/16 07:42:08;;;;;;;106.68;26.73;;;18.10;57.30;;;;;;5476418;26;20094;-53
2024/04/16 07:44:35;;;;;;;98.30;25.23;;;18.10;56.80;;;;;;5449991;26;20063;-56
2024/04/16 07:47:02;;;;;;;90.28;23.80;;;18.10;56.60;;;;;;5445188;26;20090;-59
2024/04/16 07:49:28;;;;;;;86.10;24.70;;;18.10;57.50;;;;;;5479203;26;20123;-50
2024/04/16 07:51:55;;;;;;;104.32;24.20;;;18.20;57.50;;;;;;5447131;26;20159;-54
2024/04/16 07:54:21;;;;;;;108.32;24.02;;;18.10;57.20;;;;;;5479375;26;20228;-53
2024/04/16 07:56:48;;;;;;;81.38;21.33;;;18.10;56.00;;;;;;5478696;26;20067;-49
2024/04/16 07:59:14;;;;;;;87.65;22.63;;;18.10;53.80;;;;;;5442423;26;20066;-48
2024/04/16 08:01:41;;;;;;;83.55;24.85;;;18.40;53.00;;;;;;5478201;26;20068;-51
2024/04/16 08:04:09;;;;;;;92.05;22.45;;;18.50;52.50;;;;;;5477668;26;20067;-49
2024/04/16 08:06:35;;;;;;;86.85;22.75;;;18.60;52.70;;;;;;5482022;26;20070;-49
2024/04/16 08:09:02;;;;;;;81.32;21.85;;;18.60;53.00;;;;;;5476441;26;20063;-50
2024/04/16 08:11:29;;;;;;;80.88;21.40;;;18.60;52.30;;;;;;5479422;26;20093;-53
2024/04/16 08:13:55;;;;;;;91.10;22.92;;;18.60;52.30;;;;;;5480018;26;20070;-49
2024/04/16 08:16:21;;;;;;;93.35;26.30;;;18.60;52.70;;;;;;5479487;26;20254;-52
2024/04/16 08:18:48;;;;;;;89.88;25.02;;;18.70;52.70;;;;;;5480811;26;20517;-55
2024/04/16 08:21:15;;;;;;;86.20;25.98;;;19.20;53.90;;;;;;5478238;26;20067;-49
2024/04/16 08:23:41;;;;;;;89.68;29.92;;;19.40;53.10;;;;;;5479215;26;20154;-49
2024/04/16 08:26:08;;;;;;;93.68;25.40;;;19.60;52.60;;;;;;5446712;26;20529;-48
2024/04/16 08:28:34;;;;;;;95.88;26.33;;;19.60;52.20;;;;;;5479197;26;20489;-50
2024/04/16 08:31:03;;;;;;;89.88;23.92;;;19.70;51.80;;;;;;5477585;26;20093;-51
2024/04/16 08:33:29;;;;;;;88.78;26.63;;;19.90;52.00;;;;;;5477927;26;20103;-50
2024/04/16 08:35:56;;;;;;;90.95;25.20;;;19.80;51.60;;;;;;5479378;26;20094;-53
2024/04/16 08:38:23;;;;;;;90.68;24.15;;;19.60;53.30;;;;;;5479620;26;20110;-50
2024/04/16 08:40:49;;;;;;;90.68;25.17;;;19.40;52.90;;;;;;5477242;26;20094;-50
2024/04/16 08:43:16;;;;;;;91.18;26.48;;;19.50;52.90;;;;;;5481424;26;20067;-50
2024/04/16 08:45:48;;;;;;;84.72;25.25;;;19.60;52.40;;;;;;5480446;26;20090;-48
2024/04/16 08:48:15;;;;;;;81.38;23.23;;;19.60;52.50;;;;;;5474188;26;20500;-48
2024/04/16 08:50:45;;;;;;;73.13;21.98;;;19.50;52.90;;;;;;5480051;26;20063;-48
2024/04/16 08:53:11;;;;;;;75.22;23.50;;;19.50;53.60;;;;;;5476738;26;20067;-51
2024/04/16 08:55:41;;;;;;;58.22;20.20;;;19.50;52.90;;;;;;5446732;26;20477;-50
2024/04/16 08:58:07;;;;;;;73.30;21.48;;;19.30;53.30;;;;;;5479880;26;20525;-49
2024/04/16 09:00:34;;;;;;;75.20;23.23;;;18.90;52.60;;;;;;5475908;26;20093;-48
2024/04/16 09:03:01;;;;;;;88.40;23.05;;;18.80;53.30;;;;;;5482469;26;20114;-48
2024/04/16 09:05:27;;;;;;;74.28;22.80;;;18.80;53.60;;;;;;5480196;26;20067;-47
2024/04/16 09:07:54;;;;;;;76.47;22.38;;;18.70;53.10;;;;;;5483366;26;20420;-48
2024/04/16 09:10:25;;;;;;;101.68;25.55;;;18.70;53.30;;;;;;5483090;26;20063;-48
2024/04/16 09:12:53;;;;;;;70.32;23.38;;;18.90;53.50;;;;;;5447823;26;20397;-50
2024/04/16 09:15:20;;;;;;;75.85;23.60;;;18.80;53.40;;;;;;5450965;26;20062;-49
2024/04/16 09:17:54;;;;;;;90.93;26.85;;;18.60;53.20;;;;;;5480257;26;20555;-50
2024/04/16 09:20:26;;;;;;;105.65;28.48;;;18.50;53.50;;;;;;5482835;26;20063;-51
2024/04/16 09:22:54;;;;;;;97.10;28.02;;;18.60;53.10;;;;;;5483328;26;20416;-49
2024/04/16 09:25:22;;;;;;;96.32;28.52;;;18.60;52.60;;;;;;5481880;26;20546;-48
2024/04/16 09:27:56;;;;;;;94.65;29.40;;;18.60;52.70;;;;;;5481207;26;20089;-53
2024/04/16 09:30:23;;;;;;;92.15;28.13;;;18.80;52.60;;;;;;5482553;26;20094;-51
2024/04/16 09:33:01;;;;;;;101.13;27.48;;;18.90;52.90;;;;;;5446148;26;20085;-50
2024/04/16 09:35:29;;;;;;;109.25;28.50;;;18.60;52.70;;;;;;5477113;26;20372;-48
2024/04/16 09:38:04;;;;;;;98.38;28.52;;;18.60;52.70;;;;;;5481089;26;20063;-50
2024/04/16 09:40:31;;;;;;;104.57;28.27;;;18.60;54.00;;;;;;5481295;26;22360;-53
2024/04/16 09:42:59;;;;;;;101.28;27.10;;;18.60;54.00;;;;;;5474584;26;20067;-48
2024/04/16 09:45:27;;;;;;;99.63;28.23;;;18.70;53.70;;;;;;5482834;26;20424;-51
2024/04/16 09:47:55;;;;;;;126.55;43.53;;;18.40;54.70;;;;;;5481440;26;20066;-53
2024/04/16 09:50:22;;;;;;;131.40;44.67;;;18.40;54.70;;;;;;5482419;26;20071;-48
2024/04/16 09:52:53;;;;;;;97.55;28.38;;;18.30;55.00;;;;;;5481007;26;20063;-47
2024/04/16 09:55:22;;;;;;;90.30;27.70;;;18.40;55.70;;;;;;5481369;26;20071;-46
2024/04/16 09:57:50;;;;;;;78.45;26.23;;;18.20;54.70;;;;;;5483036;26;20093;-54
2024/04/16 10:00:17;;;;;;;82.78;24.98;;;18.00;54.70;;;;;;5483854;26;20111;-48
2024/04/16 10:02:45;;;;;;;92.32;26.33;;;17.80;55.00;;;;;;5481252;26;20078;-48
2024/04/16 10:05:13;;;;;;;94.63;26.63;;;17.80;55.40;;;;;;5483389;26;20063;-46
2024/04/16 10:07:41;;;;;;;78.82;23.83;;;17.90;55.30;;;;;;5481423;26;20153;-46
2024/04/16 10:10:09;;;;;;;72.05;23.65;;;17.90;56.30;;;;;;5478013;26;20063;-47
2024/04/16 10:12:37;;;;;;;71.30;22.13;;;17.80;54.90;;;;;;5476387;26;20093;-48
2024/04/16 10:15:08;;;;;;;61.63;19.92;;;17.70;55.10;;;;;;5477534;26;20209;-49
2024/04/16 10:17:52;;;;;;;68.03;18.92;;;17.60;54.50;;;;;;5480578;26;20075;-50
2024/04/16 10:20:23;;;;;;;56.28;15.75;;;17.80;54.70;;;;;;5482643;26;20115;-49
2024/04/16 10:22:59;;;;;;;58.10;13.68;;;17.80;52.70;;;;;;5481404;26;20155;-47
2024/04/16 10:25:33;;;;;;;;;;;17.80;51.60;;;;;;5477479;26;20067;-51
2024/04/16 10:28:02;;;;;;;37.97;10.60;;;17.70;51.50;;;;;;5477374;26;20032;-53
2024/04/16 10:30:30;;;;;;;28.08;6.47;;;17.50;51.50;;;;;;5470867;26;20075;-50
2024/04/16 10:32:57;;;;;;;17.05;4.28;;;17.50;50.80;;;;;;5451485;26;20071;-48
2024/04/16 10:35:25;;;;;;;11.45;2.97;;;17.60;49.50;;;;;;5472724;26;20066;-53
2024/04/16 10:37:52;;;;;;;8.30;3.50;;;17.60;48.90;;;;;;5479124;26;20075;-51
2024/04/16 10:40:29;;;;;;;7.43;2.00;;;17.80;49.00;;;;;;5481254;26;20079;-49
2024/04/16 10:43:00;;;;;;;7.25;1.90;;;17.80;48.60;;;;;;5449183;26;20063;-47
2024/04/16 10:45:30;;;;;;;7.40;1.50;;;17.90;48.10;;;;;;5478048;26;20119;-47
2024/04/16 10:47:58;;;;;;;6.10;1.60;;;17.80;48.10;;;;;;5479039;26;20067;-47
2024/04/16 10:50:24;;;;;;;6.85;1.60;;;17.70;48.50;;;;;;5478519;26;20102;-48
2024/04/16 10:52:51;;;;;;;6.97;1.45;;;17.60;48.70;;;;;;5481602;26;20417;-50
2024/04/16 10:55:18;;;;;;;7.82;1.67;;;17.40;49.00;;;;;;5480384;26;20062;-51
2024/04/16 10:57:45;;;;;;;5.82;1.58;;;17.30;49.40;;;;;;5481316;26;20581;-53
2024/04/16 11:00:14;;;;;;;4.93;1.60;;;17.30;49.60;;;;;;5477146;26;20106;-52
2024/04/16 11:02:41;;;;;;;9.23;1.50;;;17.20;50.00;;;;;;5482664;26;20071;-48
2024/04/16 11:05:07;;;;;;;5.45;1.20;;;17.20;50.20;;;;;;5451804;26;20398;-53
2024/04/16 11:07:35;;;;;;;5.57;1.20;;;17.20;50.50;;;;;;5482860;26;20392;-51
2024/04/16 11:10:01;;;;;;;6.15;1.08;;;17.20;50.40;;;;;;5481915;26;20066;-51
2024/04/16 11:12:28;;;;;;;3.45;1.10;;;17.20;50.60;;;;;;5481764;26;20063;-49
2024/04/16 11:14:54;;;;;;;4.05;1.27;;;17.20;50.60;;;;;;5478469;26;20067;-48
2024/04/16 11:17:21;;;;;;;7.57;1.23;;;17.10;50.60;;;;;;5480226;26;20449;-51
2024/04/16 11:19:48;;;;;;;5.80;1.00;;;17.00;50.80;;;;;;5476575;26;20163;-52
2024/04/16 11:22:15;;;;;;;7.38;1.30;;;17.10;50.80;;;;;;5448193;26;20067;-49
2024/04/16 11:24:43;;;;;;;7.78;1.30;;;17.00;51.10;;;;;;5479064;26;20063;-51
2024/04/16 11:27:12;;;;;;;9.63;1.52;;;17.00;51.30;;;;;;5482029;26;20080;-49
2024/04/16 11:29:49;;;;;;;3.85;1.10;;;17.00;51.30;;;;;;5446075;26;20079;-48
2024/04/16 11:32:19;;;;;;;12.25;1.58;;;16.80;51.60;;;;;;5478617;26;20093;-52
2024/04/16 11:34:46;;;;;;;3.40;1.30;;;16.80;51.90;;;;;;5479860;26;20062;-53
2024/04/16 11:37:14;;;;;;;5.70;1.42;;;16.70;51.70;;;;;;5477316;26;20063;-52
2024/04/16 11:39:43;;;;;;;5.53;1.30;;;16.80;51.70;;;;;;5479631;26;20093;-50
2024/04/16 11:42:11;;;;;;;3.92;1.55;;;16.80;51.80;;;;;;5478509;26;20163;-51
2024/04/16 11:44:41;;;;;;;7.40;1.40;;;16.80;51.60;;;;;;5444558;26;20075;-51
2024/04/16 11:47:11;;;;;;;5.35;1.30;;;16.70;51.70;;;;;;5446794;26;20075;-52
2024/04/16 11:49:41;;;;;;;4.60;1.00;;;16.70;51.60;;;;;;5482308;26;20075;-51
2024/04/16 11:52:07;;;;;;;10.57;1.20;;;16.80;51.60;;;;;;5447304;26;20600;-47
2024/04/16 11:54:35;;;;;;;5.60;1.42;;;16.70;51.90;;;;;;5444932;26;20062;-53
2024/04/16 11:57:04;;;;;;;5.53;1.25;;;16.70;51.90;;;;;;5448971;26;20089;-49
2024/04/16 11:59:32;;;;;;;4.35;1.30;;;16.70;53.00;;;;;;5479811;26;20081;-51
2024/04/16 12:01:58;;;;;;;7.25;1.60;;;16.80;53.10;;;;;;5448534;26;20750;-50
2024/04/16 12:04:25;;;;;;;4.13;0.93;;;16.70;52.90;;;;;;5476765;26;20355;-47
2024/04/16 12:06:51;;;;;;;5.85;1.15;;;16.80;52.50;;;;;;5479910;26;20108;-50
2024/04/16 12:09:18;;;;;;;4.95;1.33;;;16.70;52.20;;;;;;5481615;26;20094;-50
2024/04/16 12:11:45;;;;;;;3.22;1.10;;;16.70;53.20;;;;;;5479976;26;20094;-52
2024/04/16 12:14:11;;;;;;;6.13;1.13;;;16.60;53.10;;;;;;5477452;26;20097;-55
2024/04/16 12:16:40;;;;;;;6.95;1.42;;;16.60;52.80;;;;;;5475946;26;20380;-47
2024/04/16 12:19:07;;;;;;;7.63;1.30;;;16.60;53.50;;;;;;5479589;26;20528;-48
2024/04/16 12:21:34;;;;;;;8.15;1.30;;;16.60;53.50;;;;;;5479701;26;20089;-51
2024/04/16 12:24:00;;;;;;;7.90;1.60;;;16.50;53.90;;;;;;5476280;26;20080;-47
2024/04/16 12:26:27;;;;;;;5.03;1.15;;;16.60;53.80;;;;;;5444046;26;20071;-49
2024/04/16 12:28:58;;;;;;;12.85;1.58;;;16.50;53.20;;;;;;5478861;26;20144;-48
2024/04/16 12:31:26;;;;;;;10.68;2.13;;;16.50;53.30;;;;;;5445796;26;20079;-47
2024/04/16 12:33:52;;;;;;;13.50;2.47;;;16.50;53.00;;;;;;5477541;26;20513;-50
2024/04/16 12:36:19;;;;;;;10.82;1.73;;;16.40;52.80;;;;;;5442952;26;20075;-47